地図

経路データ

SID SEASON NUMBER BASIN SUBBASIN NAME ISO_TIME NATURE LAT LON WMO_WIND WMO_PRES WMO_AGENCY TRACK_TYPE DIST2LAND LANDFALL IFLAG USA_AGENCY USA_ATCF_ID USA_LAT USA_LON USA_RECORD USA_STATUS USA_WIND USA_PRES USA_SSHS USA_R34_NE USA_R34_SE USA_R34_SW USA_R34_NW USA_R50_NE USA_R50_SE USA_R50_SW USA_R50_NW USA_R64_NE USA_R64_SE USA_R64_SW USA_R64_NW USA_POCI USA_ROCI USA_RMW USA_EYE TOKYO_LAT TOKYO_LON TOKYO_GRADE TOKYO_WIND TOKYO_PRES TOKYO_R50_DIR TOKYO_R50_LONG TOKYO_R50_SHORT TOKYO_R30_DIR TOKYO_R30_LONG TOKYO_R30_SHORT TOKYO_LAND CMA_LAT CMA_LON CMA_CAT CMA_WIND CMA_PRES HKO_LAT HKO_LON HKO_CAT HKO_WIND HKO_PRES NEWDELHI_LAT NEWDELHI_LON NEWDELHI_GRADE NEWDELHI_WIND NEWDELHI_PRES NEWDELHI_CI NEWDELHI_DP NEWDELHI_POCI REUNION_LAT REUNION_LON REUNION_TYPE REUNION_WIND REUNION_PRES REUNION_TNUM REUNION_CI REUNION_RMW REUNION_R34_NE REUNION_R34_SE REUNION_R34_SW REUNION_R34_NW REUNION_R50_NE REUNION_R50_SE REUNION_R50_SW REUNION_R50_NW REUNION_R64_NE REUNION_R64_SE REUNION_R64_SW REUNION_R64_NW BOM_LAT BOM_LON BOM_TYPE BOM_WIND BOM_PRES BOM_TNUM BOM_CI BOM_RMW BOM_R34_NE BOM_R34_SE BOM_R34_SW BOM_R34_NW BOM_R50_NE BOM_R50_SE BOM_R50_SW BOM_R50_NW BOM_R64_NE BOM_R64_SE BOM_R64_SW BOM_R64_NW BOM_ROCI BOM_POCI BOM_EYE BOM_POS_METHOD BOM_PRES_METHOD NADI_LAT NADI_LON NADI_CAT NADI_WIND NADI_PRES WELLINGTON_LAT WELLINGTON_LON WELLINGTON_WIND WELLINGTON_PRES DS824_LAT DS824_LON DS824_STAGE DS824_WIND DS824_PRES TD9636_LAT TD9636_LON TD9636_STAGE TD9636_WIND TD9636_PRES TD9635_LAT TD9635_LON TD9635_WIND TD9635_PRES TD9635_ROCI NEUMANN_LAT NEUMANN_LON NEUMANN_CLASS NEUMANN_WIND NEUMANN_PRES MLC_LAT MLC_LON MLC_CLASS MLC_WIND MLC_PRES USA_GUST BOM_GUST BOM_GUST_PER REUNION_GUST REUNION_GUST_PER USA_SEAHGT USA_SEARAD_NE USA_SEARAD_SE USA_SEARAD_SW USA_SEARAD_NW STORM_SPEED STORM_DIR
1982257N20291 1982 76 NA NA DEBBY 1982-09-13 12:00:00 TS 19.8000 -69.5000 30 1010 hurdat_atl main 53 53 O_____________ hurdat_atl AL061982 19.8000 -69.5000 TD 30 1010 -1 13 329
1982257N20291 1982 76 NA NA DEBBY 1982-09-13 15:00:00 TS 20.3351 -69.8394 main 81 81 P_____________ AL061982 20.3351 -69.8394 TD 30 1009 -1 12 327
1982257N20291 1982 76 NA NA DEBBY 1982-09-13 18:00:00 TS 20.8000 -70.2000 30 1009 hurdat_atl main 119 119 O_____________ hurdat_atl AL061982 20.8000 -70.2000 TD 30 1009 -1 11 319
1982257N20291 1982 76 NA NA DEBBY 1982-09-13 21:00:00 TS 21.1575 -70.5929 main 156 156 P_____________ AL061982 21.1575 -70.5929 TD 30 1009 -1 10 313
1982257N20291 1982 76 NA NA DEBBY 1982-09-14 00:00:00 TS 21.5000 -71.0000 30 1009 hurdat_atl main 190 178 O_____________ hurdat_atl AL061982 21.5000 -71.0000 TD 30 1009 -1 11 314
1982257N20291 1982 76 NA NA DEBBY 1982-09-14 03:00:00 TS 21.9202 -71.4522 main 173 170 P_____________ AL061982 21.9202 -71.4522 TD 30 1008 -1 12 321
1982257N20291 1982 76 NA NA DEBBY 1982-09-14 06:00:00 TS 22.4000 -71.8000 30 1008 hurdat_atl main 182 182 O_____________ hurdat_atl AL061982 22.4000 -71.8000 TD 30 1008 -1 11 337
1982257N20291 1982 76 NA NA DEBBY 1982-09-14 09:00:00 TS 22.9348 -71.9179 main 221 221 P_____________ AL061982 22.9348 -71.9179 TD 32 1007 -1 11 355
1982257N20291 1982 76 NA NA DEBBY 1982-09-14 12:00:00 TS 23.5000 -71.9000 35 1006 hurdat_atl main 280 280 O_____________ hurdat_atl AL061982 23.5000 -71.9000 TS 35 1006 0 11 1
1982257N20291 1982 76 NA NA DEBBY 1982-09-14 15:00:00 TS 24.0573 -71.9170 main 343 343 P_____________ AL061982 24.0573 -71.9170 TS 45 1003 0 11 5
1982257N20291 1982 76 NA NA DEBBY 1982-09-14 18:00:00 TS 24.6000 -71.8000 55 1000 hurdat_atl main 399 399 O_____________ hurdat_atl AL061982 24.6000 -71.8000 TS 55 1000 0 11 22
1982257N20291 1982 76 NA NA DEBBY 1982-09-14 21:00:00 TS 25.1002 -71.4453 main 465 465 P_____________ AL061982 25.1002 -71.4453 TS 60 996 0 12 36
1982257N20291 1982 76 NA NA DEBBY 1982-09-15 00:00:00 TS 25.6000 -71.0000 65 993 hurdat_atl main 532 532 O_____________ hurdat_atl AL061982 25.6000 -71.0000 HU 65 993 1 13 35
1982257N20291 1982 76 NA NA DEBBY 1982-09-15 03:00:00 TS 26.1424 -70.6421 main 599 599 P_____________ AL061982 26.1424 -70.6421 HU 65 991 1 13 30
1982257N20291 1982 76 NA NA DEBBY 1982-09-15 06:00:00 TS 26.7000 -70.3000 65 990 hurdat_atl main 672 672 O_____________ hurdat_atl AL061982 26.7000 -70.3000 HU 65 990 1 13 28
1982257N20291 1982 76 NA NA DEBBY 1982-09-15 09:00:00 TS 27.2421 -69.9791 main 736 736 P_____________ AL061982 27.2421 -69.9791 HU 70 985 1 13 29
1982257N20291 1982 76 NA NA DEBBY 1982-09-15 12:00:00 TS 27.8000 -69.6000 75 980 hurdat_atl main 813 813 O_____________ hurdat_atl AL061982 27.8000 -69.6000 HU 75 980 1 14 35
1982257N20291 1982 76 NA NA DEBBY 1982-09-15 15:00:00 TS 28.3702 -69.0722 main 895 895 P_____________ AL061982 28.3702 -69.0722 HU 82 974 1 15 39
1982257N20291 1982 76 NA NA DEBBY 1982-09-15 18:00:00 TS 29.0000 -68.5000 90 969 hurdat_atl main 981 969 O_____________ hurdat_atl AL061982 29.0000 -68.5000 HU 90 969 2 17 35
1982257N20291 1982 76 NA NA DEBBY 1982-09-15 21:00:00 TS 29.7199 -67.9772 main 970 949 P_____________ AL061982 29.7199 -67.9772 HU 92 967 2 17 30
1982257N20291 1982 76 NA NA DEBBY 1982-09-16 00:00:00 TS 30.5000 -67.5000 95 966 hurdat_atl main 949 923 O_____________ hurdat_atl AL061982 30.5000 -67.5000 HU 95 966 2 18 26
1982257N20291 1982 76 NA NA DEBBY 1982-09-16 03:00:00 TS 31.2996 -67.0915 main 924 905 P_____________ AL061982 31.2996 -67.0915 HU 95 966 2 17 23
1982257N20291 1982 76 NA NA DEBBY 1982-09-16 06:00:00 TS 32.1000 -66.7000 95 966 hurdat_atl main 908 904 O_____________ hurdat_atl AL061982 32.1000 -66.7000 HU 95 966 2 17 26
1982257N20291 1982 76 NA NA DEBBY 1982-09-16 09:00:00 TS 32.8578 -66.2057 main 910 910 P_____________ AL061982 32.8578 -66.2057 HU 95 966 2 17 27
1982257N20291 1982 76 NA NA DEBBY 1982-09-16 12:00:00 TS 33.6000 -65.8000 95 966 hurdat_atl main 917 907 O_____________ hurdat_atl AL061982 33.6000 -65.8000 HU 95 966 2 16 18
1982257N20291 1982 76 NA NA DEBBY 1982-09-16 15:00:00 TS 34.3647 -65.6314 main 898 828 P_____________ AL061982 34.3647 -65.6314 HU 95 966 2 15 6
1982257N20291 1982 76 NA NA DEBBY 1982-09-16 18:00:00 TS 35.1000 -65.6000 95 966 hurdat_atl main 828 758 O_____________ hurdat_atl AL061982 35.1000 -65.6000 HU 95 966 2 15 1
1982257N20291 1982 76 NA NA DEBBY 1982-09-16 21:00:00 TS 35.8325 -65.5846 main 758 700 P_____________ AL061982 35.8325 -65.5846 HU 95 966 2 13 1
1982257N20291 1982 76 NA NA DEBBY 1982-09-17 00:00:00 TS 36.4000 -65.6000 95 966 hurdat_atl main 700 672 O_____________ hurdat_atl AL061982 36.4000 -65.6000 HU 95 966 2 8 358
1982257N20291 1982 76 NA NA DEBBY 1982-09-17 03:00:00 TS 36.6749 -65.6447 main 672 663 P_____________ AL061982 36.6749 -65.6447 HU 95 966 2 4 0
1982257N20291 1982 76 NA NA DEBBY 1982-09-17 06:00:00 TS 36.8000 -65.6000 95 966 hurdat_atl main 663 653 O_____________ hurdat_atl AL061982 36.8000 -65.6000 HU 95 966 2 3 35
1982257N20291 1982 76 NA NA DEBBY 1982-09-17 09:00:00 TS 36.9418 -65.4118 main 664 654 P_____________ AL061982 36.9418 -65.4118 HU 95 966 2 6 58
1982257N20291 1982 76 NA NA DEBBY 1982-09-17 12:00:00 TS 37.1000 -65.0000 95 966 hurdat_atl main 667 667 O_____________ hurdat_atl AL061982 37.1000 -65.0000 HU 95 966 2 10 69
1982257N20291 1982 76 NA NA DEBBY 1982-09-17 15:00:00 TS 37.2835 -64.2942 main 690 671 P_____________ AL061982 37.2835 -64.2942 HU 97 963 3 13 67
1982257N20291 1982 76 NA NA DEBBY 1982-09-17 18:00:00 TS 37.6000 -63.5000 100 960 hurdat_atl main 673 630 O_____________ hurdat_atl AL061982 37.6000 -63.5000 HU 100 960 3 14 52
1982257N20291 1982 76 NA NA DEBBY 1982-09-17 21:00:00 TS 38.1389 -62.9064 main 633 579 P_____________ AL061982 38.1389 -62.9064 HU 107 955 3 15 38
1982257N20291 1982 76 NA NA DEBBY 1982-09-18 00:00:00 TS 38.8000 -62.3000 115 950 hurdat_atl main 579 545 O_____________ hurdat_atl AL061982 38.8000 -62.3000 HU 115 950 4 17 39
1982257N20291 1982 76 NA NA DEBBY 1982-09-18 03:00:00 TS 39.4265 -61.5725 main 549 527 P_____________ AL061982 39.4265 -61.5725 HU 112 951 3 18 44
1982257N20291 1982 76 NA NA DEBBY 1982-09-18 06:00:00 TS 40.1000 -60.7000 110 952 hurdat_atl main 532 499 O_____________ hurdat_atl AL061982 40.1000 -60.7000 HU 110 952 3 20 47
1982257N20291 1982 76 NA NA DEBBY 1982-09-18 09:00:00 TS 40.8048 -59.6573 main 499 447 P_____________ AL061982 40.8048 -59.6573 HU 110 953 3 22 48
1982257N20291 1982 76 NA NA DEBBY 1982-09-18 12:00:00 TS 41.6000 -58.5000 110 954 hurdat_atl main 451 419 O_____________ hurdat_atl AL061982 41.6000 -58.5000 HU 110 954 3 24 45
1982257N20291 1982 76 NA NA DEBBY 1982-09-18 15:00:00 TS 42.5263 -57.3283 main 423 379 P_____________ AL061982 42.5263 -57.3283 HU 105 957 3 26 43
1982257N20291 1982 76 NA NA DEBBY 1982-09-18 18:00:00 TS 43.5000 -56.1000 100 960 hurdat_atl main 368 264 O_____________ hurdat_atl AL061982 43.5000 -56.1000 HU 100 960 3 26 44
1982257N20291 1982 76 NA NA DEBBY 1982-09-18 21:00:00 TS 44.4130 -54.8403 main 261 144 P_____________ AL061982 44.4130 -54.8403 HU 95 965 2 26 46
1982257N20291 1982 76 NA NA DEBBY 1982-09-19 00:00:00 TS 45.3000 -53.5000 90 970 hurdat_atl main 144 90 O_____________ hurdat_atl AL061982 45.3000 -53.5000 HU 90 970 2 26 48
1982257N20291 1982 76 NA NA DEBBY 1982-09-19 03:00:00 TS 46.1705 -52.0560 main 94 94 P_____________ AL061982 46.1705 -52.0560 HU 82 974 1 27 51
1982257N20291 1982 76 NA NA DEBBY 1982-09-19 06:00:00 TS 47.0000 -50.5000 75 979 hurdat_atl main 167 167 O_____________ hurdat_atl AL061982 47.0000 -50.5000 HU 75 979 1 27 54
1982257N20291 1982 76 NA NA DEBBY 1982-09-19 09:00:00 TS 47.7631 -48.8393 main 285 285 P_____________ AL061982 47.7631 -48.8393 HU 72 983 1 27 57
1982257N20291 1982 76 NA NA DEBBY 1982-09-19 12:00:00 TS 48.5000 -47.1000 70 987 hurdat_atl main 421 421 O_____________ hurdat_atl AL061982 48.5000 -47.1000 HU 70 987 1 27 56
1982257N20291 1982 76 NA NA DEBBY 1982-09-19 15:00:00 TS 49.2970 -45.3812 main 556 556 P_____________ AL061982 49.2970 -45.3812 HU 70 987 1 28 57
1982257N20291 1982 76 NA NA DEBBY 1982-09-19 18:00:00 TS 50.0000 -43.5000 70 987 hurdat_atl main 705 705 O_____________ hurdat_atl AL061982 50.0000 -43.5000 HU 70 987 1 28 66
1982257N20291 1982 76 NA NA DEBBY 1982-09-19 21:00:00 TS 50.4546 -41.3826 main 861 861 P_____________ AL061982 50.4546 -41.3826 HU 70 987 1 30 74
1982257N20291 1982 76 NA NA DEBBY 1982-09-20 00:00:00 TS 50.8000 -39.0000 70 987 hurdat_atl main 1033 1033 O_____________ hurdat_atl AL061982 50.8000 -39.0000 HU 70 987 1 32 77
1982257N20291 1982 76 NA NA DEBBY 1982-09-20 03:00:00 TS 51.1779 -36.4285 main 1069 1069 P_____________ AL061982 51.1779 -36.4285 HU 65 990 1 35 79
1982257N20291 1982 76 NA NA DEBBY 1982-09-20 06:00:00 TS 51.5000 -33.5000 60 993 hurdat_atl main 1121 1121 O_____________ hurdat_atl AL061982 51.5000 -33.5000 TS 60 993 0 39 82
1982257N20291 1982 76 NA NA DEBBY 1982-09-20 09:00:00 TS 51.7182 -30.2087 main 1222 1109 P_____________ AL061982 51.7182 -30.2087 TS 55 994 0 43 86
1982257N20291 1982 76 NA NA DEBBY 1982-09-20 12:00:00 TS 51.8000 -26.6000 50 996 hurdat_atl main 1095 853 O_____________ hurdat_atl AL061982 51.8000 -26.6000 TS 50 996 0 45 90
1982257N20291 1982 76 NA NA DEBBY 1982-09-20 15:00:00 TS 51.7242 -22.8262 main 839 598 P_____________ AL061982 51.7242 -22.8262 TS 50 996 0 47 94
1982257N20291 1982 76 NA NA DEBBY 1982-09-20 18:00:00 ET 51.5000 -19.0000 50 996 hurdat_atl main 584 O_____________ hurdat_atl AL061982 51.5000 -19.0000 EX 50 996 -4 48 95

IBTrACS Databaseについて

本データベースは、米国NOAAが公開する1842年以降の世界の熱帯低気圧のベストトラックデータアーカイブInternational Best Track Archive for Climate Stewardship (IBTrACS)を、ウェブで閲覧しやすい形式に変換したものです。

最終更新日:2021-10-21